Time;durP1;ratioP1;P1;durP2;ratioP2;P2;SDS_P1;SDS_P2;PMS_P1;PMS_P2;Temp;Humidity;BMP_temperature;BMP_pressure;BME280_temperature;BME280_humidity;BME280_pressure;Samples;Min_cycle;Max_cycle;Signal;HPM_P1;HPM_P2
2021/09/30 00:01:00;;;;;;;;;;;11.20;99.90;;;;;;5069972;28;19920;-73
2021/09/30 00:03:25;;;;;;;;;;;11.20;99.90;;;;;;5074060;28;19919;-73
2021/09/30 00:05:51;;;;;;;;;;;11.10;99.90;;;;;;5093218;28;19992;-73
2021/09/30 00:08:16;;;;;;;;;;;11.10;99.90;;;;;;5074396;28;19938;-75
2021/09/30 00:10:49;;;;;;;;;;;11.10;99.90;;;;;;5077050;28;19952;-74
2021/09/30 00:13:35;;;;;;;;;;;10.90;99.90;;;;;;5083367;28;20323;-74
2021/09/30 00:48:29;;;;;;;;;;;11.10;99.90;;;;;;5032383;28;19936;-74
2021/09/30 01:18:48;;;;;;;;;;;11.00;99.90;;;;;;5053164;28;20280;-73
2021/09/30 01:45:42;;;;;;;;;;;10.80;99.90;;;;;;5053358;28;19923;-74
2021/09/30 02:25:07;;;;;;;;;;;10.40;99.90;;;;;;5053408;28;19995;-73
2021/09/30 02:59:46;;;;;;;;;;;10.30;99.90;;;;;;5080746;28;19930;-73
2021/09/30 03:02:13;;;;;;;;;;;10.30;99.90;;;;;;5079984;28;19923;-74
2021/09/30 03:04:39;;;;;;;;;;;10.30;99.90;;;;;;5080619;28;19972;-76
2021/09/30 03:07:05;;;;;;;;;;;10.30;99.90;;;;;;5104967;28;19916;-73
2021/09/30 03:09:43;;;;;;;;;;;10.30;99.90;;;;;;5093871;28;19978;-73
2021/09/30 03:12:27;;;;;;;;;;;10.30;99.90;;;;;;5061128;28;19919;-74
2021/09/30 03:15:04;;;;;;;;;;;10.30;99.90;;;;;;5058667;28;19913;-73
2021/09/30 03:17:42;;;;;;;;;;;10.30;99.90;;;;;;5089326;28;19913;-73
2021/09/30 03:20:27;;;;;;;;;;;10.30;99.90;;;;;;5056189;28;19920;-74
2021/09/30 03:22:54;;;;;;;;;;;10.30;99.90;;;;;;5088626;28;19919;-74
2021/09/30 03:25:19;;;;;;;;;;;10.30;99.90;;;;;;5067083;28;19913;-73
2021/09/30 03:27:45;;;;;;;;;;;10.30;99.90;;;;;;5080328;28;20348;-74
2021/09/30 03:30:11;;;;;;;;;;;10.30;99.90;;;;;;5070392;28;19916;-73
2021/09/30 03:32:36;;;;;;;;;;;10.40;99.90;;;;;;5055488;28;19916;-73
2021/09/30 03:35:03;;;;;;;;;;;10.40;99.90;;;;;;5055730;28;19912;-73
2021/09/30 03:37:29;;;;;;;;;;;10.40;99.90;;;;;;5070810;28;19969;-73
2021/09/30 03:39:55;;;;;;;;;;;10.40;99.90;;;;;;5054925;28;19917;-73
2021/09/30 03:42:31;;;;;;;;;;;10.40;99.90;;;;;;5055931;28;20395;-73
2021/09/30 03:44:57;;;;;;;;;;;10.30;99.90;;;;;;5071166;28;19960;-73
2021/09/30 03:47:22;;;;;;;;;;;10.30;99.90;;;;;;5055181;28;19965;-74
2021/09/30 03:49:49;;;;;;;;;;;10.30;99.90;;;;;;5054970;28;20378;-74
2021/09/30 03:52:36;;;;;;;;;;;10.30;99.90;;;;;;5087518;28;19913;-74
2021/09/30 04:00:16;;;;;;;;;;;10.20;99.90;;;;;;5052633;28;20289;-74
2021/09/30 04:02:42;;;;;;;;;;;10.20;99.90;;;;;;5054662;28;19912;-74
2021/09/30 04:05:07;;;;;;;;;;;10.20;99.90;;;;;;5070326;28;19920;-74
2021/09/30 04:07:52;;;;;;;;;;;10.20;99.90;;;;;;5054937;28;19913;-75
2021/09/30 04:10:17;;;;;;;;;;;10.10;99.90;;;;;;5050066;28;19913;-74
2021/09/30 04:12:43;;;;;;;;;;;10.10;99.90;;;;;;5055433;28;19976;-74
2021/09/30 04:15:08;;;;;;;;;;;10.10;99.90;;;;;;5055256;28;19958;-74
2021/09/30 04:17:34;;;;;;;;;;;10.10;99.90;;;;;;5054386;28;20270;-74
2021/09/30 04:19:59;;;;;;;;;;;10.10;99.90;;;;;;5071047;28;19917;-74
2021/09/30 04:22:25;;;;;;;;;;;10.10;99.90;;;;;;5052956;28;19920;-76
2021/09/30 04:24:50;;;;;;;;;;;10.10;99.90;;;;;;5053640;28;19932;-74
2021/09/30 04:27:16;;;;;;;;;;;10.20;99.90;;;;;;5069525;28;19913;-74
2021/09/30 04:29:42;;;;;;;;;;;10.10;99.90;;;;;;5078528;28;19912;-75
2021/09/30 04:32:07;;;;;;;;;;;10.10;99.90;;;;;;5054020;28;20273;-74
2021/09/30 04:34:33;;;;;;;;;;;10.10;99.90;;;;;;5070265;28;19999;-75
2021/09/30 04:36:58;;;;;;;;;;;10.10;99.90;;;;;;5086703;28;19913;-75
2021/09/30 04:39:24;;;;;;;;;;;10.00;99.90;;;;;;5047332;28;19960;-75
2021/09/30 04:41:50;;;;;;;;;;;10.10;99.90;;;;;;5084673;28;20335;-75
2021/09/30 04:44:16;;;;;;;;;;;10.10;99.90;;;;;;5070007;28;19913;-75
2021/09/30 04:46:42;;;;;;;;;;;10.10;99.90;;;;;;5054545;28;19920;-75
2021/09/30 04:49:07;;;;;;;;;;;10.10;99.90;;;;;;5069007;28;19917;-74
2021/09/30 04:51:33;;;;;;;;;;;10.10;99.90;;;;;;5054187;28;19912;-74
2021/09/30 04:53:58;;;;;;;;;;;10.10;99.90;;;;;;5054065;28;19913;-75
2021/09/30 04:56:24;;;;;;;;;;;10.10;99.90;;;;;;5069768;28;20293;-74
2021/09/30 04:58:50;;;;;;;;;;;10.10;99.90;;;;;;5069743;28;19913;-75
2021/09/30 05:01:15;;;;;;;;;;;10.10;99.90;;;;;;5070616;28;19916;-73
2021/09/30 05:03:41;;;;;;;;;;;10.10;99.90;;;;;;5055216;28;19923;-74
2021/09/30 05:06:06;;;;;;;;;;;10.10;99.90;;;;;;5084293;28;19913;-74
2021/09/30 05:08:34;;;;;;;;;;;10.10;99.90;;;;;;5074076;28;19924;-74
2021/09/30 05:11:02;;;;;;;;;;;10.20;99.90;;;;;;5074443;28;20030;-74
2021/09/30 05:13:37;;;;;;;;;;;10.20;99.90;;;;;;5055985;28;19932;-75
2021/09/30 05:16:04;;;;;;;;;;;10.20;99.90;;;;;;5070284;28;19980;-75
2021/09/30 05:18:29;;;;;;;;;;;10.20;99.90;;;;;;5077149;28;19916;-76
2021/09/30 05:20:55;;;;;;;;;;;10.20;99.90;;;;;;5110557;28;19925;-75
2021/09/30 05:23:22;;;;;;;;;;;10.20;99.90;;;;;;5076284;28;20076;-76
2021/09/30 05:25:47;;;;;;;;;;;10.20;99.90;;;;;;5077995;28;19977;-75
2021/09/30 05:28:13;;;;;;;;;;;10.20;99.90;;;;;;5110991;28;19901;-75
2021/09/30 05:30:38;;;;;;;;;;;10.30;99.90;;;;;;5093251;28;19901;-72
2021/09/30 05:33:04;;;;;;;;;;;10.30;99.90;;;;;;5061634;28;20004;-73
2021/09/30 05:35:30;;;;;;;;;;;10.30;99.90;;;;;;5088862;28;19913;-74
2021/09/30 05:37:56;;;;;;;;;;;10.30;99.90;;;;;;5047884;28;20016;-74
2021/09/30 05:40:22;;;;;;;;;;;10.40;99.90;;;;;;5055084;28;19940;-75
2021/09/30 05:42:47;;;;;;;;;;;10.40;99.90;;;;;;5055664;28;19920;-74
2021/09/30 05:45:14;;;;;;;;;;;10.40;99.90;;;;;;5053501;28;20011;-74
2021/09/30 05:47:40;;;;;;;;;;;10.40;99.90;;;;;;5053833;28;19993;-73
2021/09/30 05:50:06;;;;;;;;;;;10.40;99.90;;;;;;5069055;28;19912;-74
2021/09/30 05:52:32;;;;;;;;;;;10.40;99.90;;;;;;5068153;28;19919;-75
2021/09/30 05:54:57;;;;;;;;;;;10.50;99.90;;;;;;5067547;28;20351;-74
2021/09/30 05:57:23;;;;;;;;;;;10.40;99.90;;;;;;5052472;28;19974;-74
2021/09/30 05:59:50;;;;;;;;;;;10.50;99.90;;;;;;5051203;28;19940;-74
2021/09/30 06:13:16;;;;;;;;;;;10.50;99.90;;;;;;5047716;28;20005;-75
2021/09/30 06:15:44;;;;;;;;;;;10.60;99.90;;;;;;5082477;28;19913;-73
2021/09/30 06:18:09;;;;;;;;;;;10.60;99.90;;;;;;5062934;28;20273;-74
2021/09/30 06:20:37;;;;;;;;;;;10.70;99.90;;;;;;5056834;28;19927;-75
2021/09/30 06:23:03;;;;;;;;;;;10.60;99.90;;;;;;5057044;28;19931;-74
2021/09/30 06:25:28;;;;;;;;;;;10.70;99.90;;;;;;5057333;28;19913;-74
2021/09/30 06:27:54;;;;;;;;;;;10.70;99.90;;;;;;5055961;28;19966;-74
2021/09/30 06:30:20;;;;;;;;;;;10.70;99.90;;;;;;5070933;28;19943;-74
2021/09/30 06:32:48;;;;;;;;;;;10.70;99.90;;;;;;5055455;28;20393;-73
2021/09/30 06:35:13;;;;;;;;;;;10.80;99.90;;;;;;5057004;28;19913;-74
2021/09/30 06:37:39;;;;;;;;;;;10.80;99.90;;;;;;5054830;28;19965;-74
2021/09/30 06:40:04;;;;;;;;;;;10.90;99.90;;;;;;5056261;28;20334;-74
2021/09/30 06:42:30;;;;;;;;;;;11.00;99.90;;;;;;5070020;28;20353;-74
2021/09/30 06:44:55;;;;;;;;;;;11.00;99.90;;;;;;5083505;28;19913;-74
2021/09/30 06:47:21;;;;;;;;;;;11.10;99.90;;;;;;5057113;28;19913;-74
2021/09/30 06:49:46;;;;;;;;;;;11.20;99.90;;;;;;5056627;28;19920;-74
2021/09/30 06:52:12;;;;;;;;;;;11.30;99.90;;;;;;5088423;28;19912;-75
2021/09/30 06:54:38;;;;;;;;;;;11.40;99.90;;;;;;5071836;28;20300;-75
2021/09/30 06:57:03;;;;;;;;;;;11.50;99.90;;;;;;5079636;28;19912;-74
2021/09/30 06:59:35;;;;;;;;;;;11.60;99.90;;;;;;5088138;28;19920;-74
2021/09/30 07:02:07;;;;;;;;;;;11.70;99.90;;;;;;5076020;28;20023;-75
2021/09/30 07:04:32;;;;;;;;;;;11.90;99.90;;;;;;5088215;28;19968;-75
2021/09/30 07:06:58;;;;;;;;;;;11.90;99.90;;;;;;5054210;28;19999;-75
2021/09/30 07:09:23;;;;;;;;;;;12.00;99.90;;;;;;5071338;28;19943;-75
2021/09/30 07:11:49;;;;;;;;;;;12.00;99.90;;;;;;5046043;28;20357;-76
2021/09/30 07:14:14;;;;;;;;;;;12.00;99.90;;;;;;5087692;28;19917;-74
2021/09/30 07:16:41;;;;;;;;;;;12.00;99.90;;;;;;5055780;28;19917;-74
2021/09/30 07:19:07;;;;;;;;;;;12.00;99.90;;;;;;5058176;28;20285;-74
2021/09/30 07:21:35;;;;;;;;;;;12.00;99.90;;;;;;5056873;28;19917;-73
2021/09/30 07:24:01;;;;;;;;;;;12.00;99.90;;;;;;5069131;28;19946;-74
2021/09/30 07:26:26;;;;;;;;;;;12.00;99.90;;;;;;5062780;28;19913;-75
2021/09/30 07:28:52;;;;;;;;;;;12.00;99.90;;;;;;5075961;28;19927;-74
2021/09/30 07:31:18;;;;;;;;;;;12.10;99.90;;;;;;5109092;28;19921;-77
2021/09/30 07:33:43;;;;;;;;;;;12.10;99.90;;;;;;5110846;28;19913;-75
2021/09/30 07:36:11;;;;;;;;;;;12.20;99.90;;;;;;5094484;28;19913;-75
2021/09/30 07:38:37;;;;;;;;;;;12.30;99.90;;;;;;5078249;28;19917;-76
2021/09/30 07:41:02;;;;;;;;;;;12.40;99.90;;;;;;5079314;28;19933;-74
2021/09/30 07:43:28;;;;;;;;;;;12.40;99.90;;;;;;5112323;28;19905;-77
2021/09/30 07:45:54;;;;;;;;;;;12.40;99.90;;;;;;5092022;28;19929;-75
2021/09/30 07:48:21;;;;;;;;;;;12.50;99.90;;;;;;5080698;28;19901;-74
2021/09/30 07:50:47;;;;;;;;;;;12.50;99.90;;;;;;5079316;28;19908;-74
2021/09/30 07:53:14;;;;;;;;;;;12.40;99.90;;;;;;5075427;28;19917;-74
2021/09/30 07:55:40;;;;;;;;;;;12.40;99.90;;;;;;5059120;28;19975;-75
2021/09/30 07:58:09;;;;;;;;;;;12.50;99.90;;;;;;5060883;28;19967;-74
2021/09/30 08:00:36;;;;;;;;;;;12.50;99.90;;;;;;5059089;28;19916;-75
2021/09/30 08:03:03;;;;;;;;;;;12.50;99.90;;;;;;5082070;28;19917;-73
2021/09/30 08:05:29;;;;;;;;;;;12.60;99.90;;;;;;5054138;28;19913;-74
2021/09/30 08:07:55;;;;;;;;;;;12.60;99.90;;;;;;5054747;28;19921;-74
2021/09/30 08:10:20;;;;;;;;;;;12.60;99.90;;;;;;5047099;28;19917;-74
2021/09/30 08:12:46;;;;;;;;;;;12.70;99.90;;;;;;5069268;28;19952;-74
2021/09/30 08:15:12;;;;;;;;;;;12.80;99.90;;;;;;5070835;28;19913;-73
2021/09/30 08:17:37;;;;;;;;;;;12.80;99.90;;;;;;5054007;28;19920;-74
2021/09/30 08:20:04;;;;;;;;;;;12.90;99.90;;;;;;5054740;28;20004;-73
2021/09/30 08:22:29;;;;;;;;;;;12.90;99.90;;;;;;5070663;28;19920;-76
2021/09/30 08:24:55;;;;;;;;;;;12.80;99.90;;;;;;5053224;28;19913;-76
2021/09/30 08:27:21;;;;;;;;;;;12.90;99.90;;;;;;5069593;28;19921;-76
2021/09/30 08:29:49;;;;;;;;;;;13.00;99.90;;;;;;5051540;28;19913;-73
2021/09/30 08:32:14;;;;;;;;;;;13.20;99.90;;;;;;5057533;28;19940;-79
2021/09/30 08:34:40;;;;;;;;;;;13.50;99.90;;;;;;5086119;28;20541;-74
2021/09/30 08:37:05;;;;;;;;;;;13.70;99.90;;;;;;5054778;28;19913;-74
2021/09/30 08:39:30;;;;;;;;;;;13.70;99.90;;;;;;5039265;28;19917;-75
2021/09/30 08:41:58;;;;;;;;;;;13.60;99.90;;;;;;5087011;28;19923;-76
2021/09/30 08:44:23;;;;;;;;;;;13.50;99.90;;;;;;5053005;28;20272;-75
2021/09/30 08:46:49;;;;;;;;;;;13.50;99.90;;;;;;5054545;28;19916;-75
2021/09/30 08:49:14;;;;;;;;;;;13.60;99.90;;;;;;5048147;28;19941;-75
2021/09/30 08:51:40;;;;;;;;;;;13.60;99.90;;;;;;5054347;28;20381;-75
2021/09/30 08:54:06;;;;;;;;;;;13.70;99.90;;;;;;5083905;28;19913;-76
2021/09/30 08:56:33;;;;;;;;;;;13.80;99.90;;;;;;5086642;28;19912;-74
2021/09/30 08:59:18;;;;;;;;;;;13.90;99.90;;;;;;5053838;28;19913;-74
2021/09/30 09:01:46;;;;;;;;;;;14.10;99.90;;;;;;5051634;28;19921;-75
2021/09/30 09:04:19;;;;;;;;;;;14.20;99.90;;;;;;5083088;28;19913;-78
2021/09/30 09:06:45;;;;;;;;;;;14.30;99.90;;;;;;5084428;28;20003;-76
2021/09/30 09:09:29;;;;;;;;;;;14.30;99.90;;;;;;5054276;28;19959;-75
2021/09/30 09:11:55;;;;;;;;;;;14.30;99.90;;;;;;5047477;28;19916;-75
2021/09/30 09:14:31;;;;;;;;;;;14.40;99.90;;;;;;5047769;28;19970;-75
2021/09/30 09:16:57;;;;;;;;;;;14.50;99.90;;;;;;5083556;28;19917;-75
2021/09/30 09:19:49;;;;;;;;;;;14.50;99.90;;;;;;5067554;28;20282;-77
2021/09/30 09:22:27;;;;;;;;;;;14.50;99.90;;;;;;5078999;28;19952;-77
2021/09/30 09:25:09;;;;;;;;;;;14.60;99.90;;;;;;5061790;28;19966;-76
2021/09/30 09:27:44;;;;;;;;;;;14.60;99.90;;;;;;5062342;28;19920;-76
2021/09/30 09:30:28;;;;;;;;;;;14.70;99.90;;;;;;5061631;28;19917;-76
2021/09/30 09:33:05;;;;;;;;;;;14.70;99.90;;;;;;5064201;28;19971;-74
2021/09/30 09:35:50;;;;;;;;;;;14.80;99.90;;;;;;5067675;28;19968;-74
2021/09/30 09:38:16;;;;;;;;;;;14.70;99.90;;;;;;5060045;28;20480;-74
2021/09/30 09:40:42;;;;;;;;;;;14.70;99.90;;;;;;5060163;28;20388;-74
2021/09/30 09:43:25;;;;;;;;;;;14.80;99.90;;;;;;5059670;28;19917;-75
2021/09/30 09:45:51;;;;;;;;;;;14.80;99.90;;;;;;5063545;28;20360;-75
2021/09/30 09:48:17;;;;;;;;;;;14.70;99.90;;;;;;5051401;28;19920;-74
2021/09/30 09:50:42;;;;;;;;;;;14.80;99.90;;;;;;5051334;28;19975;-75
2021/09/30 09:53:08;;;;;;;;;;;14.90;99.90;;;;;;5053156;28;19917;-75
2021/09/30 09:55:35;;;;;;;;;;;14.90;99.90;;;;;;5066643;28;19912;-74
2021/09/30 09:58:11;;;;;;;;;;;15.00;99.90;;;;;;5066244;28;19912;-74
2021/09/30 10:00:51;;;;;;;;;;;15.00;99.90;;;;;;5068819;28;19919;-74
2021/09/30 10:03:19;;;;;;;;;;;15.00;99.90;;;;;;5058239;28;19917;-75
2021/09/30 10:05:45;;;;;;;;;;;15.00;99.90;;;;;;5060780;28;19935;-75
2021/09/30 10:08:12;;;;;;;;;;;15.00;99.90;;;;;;5079846;28;19984;-75
2021/09/30 10:10:38;;;;;;;;;;;15.00;99.90;;;;;;5083650;28;19960;-75
2021/09/30 10:13:04;;;;;;;;;;;14.90;99.90;;;;;;5078104;28;19920;-75
2021/09/30 10:15:30;;;;;;;;;;;14.90;99.90;;;;;;5080007;28;19964;-74
2021/09/30 10:17:56;;;;;;;;;;;14.90;99.90;;;;;;5078596;28;19900;-75
2021/09/30 10:20:21;;;;;;;;;;;15.00;99.90;;;;;;5073464;28;19902;-73
2021/09/30 10:22:51;;;;;;;;;;;15.10;99.90;;;;;;5075385;28;19905;-77
2021/09/30 10:25:16;;;;;;;;;;;15.10;99.90;;;;;;5069334;28;19913;-75
2021/09/30 10:27:53;;;;;;;;;;;15.30;99.90;;;;;;5066538;28;20329;-75
2021/09/30 10:30:31;;;;;;;;;;;15.40;99.90;;;;;;5057629;28;20000;-75
2021/09/30 10:32:58;;;;;;;;;;;15.30;99.90;;;;;;5053736;28;19913;-76
2021/09/30 10:35:30;;;;;;;;;;;15.40;99.90;;;;;;5050454;28;19913;-74
2021/09/30 10:38:14;;;;;;;;;;;15.40;99.90;;;;;;5059200;28;20316;-75
2021/09/30 10:40:59;;;;;;;;;;;15.40;99.90;;;;;;5050681;28;19952;-75
2021/09/30 10:43:26;;;;;;;;;;;15.30;99.90;;;;;;5045813;28;19917;-74
2021/09/30 10:45:52;;;;;;;;;;;15.30;99.90;;;;;;5043096;28;19968;-75
2021/09/30 10:48:23;;;;;;;;;;;15.30;99.90;;;;;;5036630;28;19941;-76
2021/09/30 10:50:59;;;;;;;;;;;15.20;99.90;;;;;;5044882;28;20419;-76
2021/09/30 10:53:47;;;;;;;;;;;15.20;99.90;;;;;;5037194;28;19924;-75
2021/09/30 10:56:31;;;;;;;;;;;15.20;99.90;;;;;;5052858;28;19912;-75
2021/09/30 10:59:00;;;;;;;;;;;15.20;99.90;;;;;;5051254;28;20292;-75
2021/09/30 11:01:26;;;;;;;;;;;15.20;99.90;;;;;;5044849;28;21444;-73
2021/09/30 11:04:01;;;;;;;;;;;15.10;99.90;;;;;;5047352;28;19917;-74
2021/09/30 11:06:27;;;;;;;;;;;15.20;99.90;;;;;;5039207;28;20563;-73
2021/09/30 11:09:10;;;;;;;;;;;15.30;99.90;;;;;;5040644;28;20016;-73
2021/09/30 11:11:36;;;;;;;;;;;15.40;99.90;;;;;;5037384;28;19921;-72
2021/09/30 11:14:04;;;;;;;;;;;15.60;99.90;;;;;;5044487;28;19913;-74
2021/09/30 11:16:34;;;;;;;;;;;15.60;99.90;;;;;;5033589;28;19913;-74
2021/09/30 11:19:00;;;;;;;;;;;15.60;99.90;;;;;;5031935;28;19913;-74
2021/09/30 11:21:32;;;;;;;;;;;15.60;99.90;;;;;;5040473;28;19967;-72
2021/09/30 11:24:05;;;;;;;;;;;15.60;99.90;;;;;;5034621;28;20317;-73
2021/09/30 11:26:32;;;;;;;;;;;15.60;99.90;;;;;;5036792;28;19913;-73
2021/09/30 11:29:16;;;;;;;;;;;15.60;99.90;;;;;;5038855;28;19919;-74
2021/09/30 11:31:41;;;;;;;;;;;15.60;99.90;;;;;;5044916;28;19963;-73
2021/09/30 11:34:16;;;;;;;;;;;15.40;99.90;;;;;;5032508;28;19964;-74
2021/09/30 11:36:42;;;;;;;;;;;15.30;99.90;;;;;;5053070;28;20373;-73
2021/09/30 11:39:08;;;;;;;;;;;15.20;99.90;;;;;;5034170;28;19927;-73
2021/09/30 11:41:36;;;;;;;;;;;15.10;99.90;;;;;;5041738;28;19917;-73
2021/09/30 11:44:01;;;;;;;;;;;15.10;99.90;;;;;;5033328;28;19964;-73
2021/09/30 11:46:28;;;;;;;;;;;15.10;99.90;;;;;;5035257;28;19952;-73
2021/09/30 11:48:54;;;;;;;;;;;15.20;99.90;;;;;;5027392;28;19913;-73
2021/09/30 11:51:27;;;;;;;;;;;15.20;99.90;;;;;;5042716;28;19920;-73
2021/09/30 11:53:53;;;;;;;;;;;15.20;99.90;;;;;;5033174;28;19917;-73
2021/09/30 11:56:18;;;;;;;;;;;15.30;99.90;;;;;;5036519;28;19928;-75
2021/09/30 11:58:56;;;;;;;;;;;15.30;99.90;;;;;;5028697;28;19920;-75
2021/09/30 12:01:45;;;;;;;;;;;15.40;99.90;;;;;;5030111;28;19921;-73
2021/09/30 12:04:11;;;;;;;;;;;15.30;99.90;;;;;;5034292;28;19917;-74
2021/09/30 12:06:41;;;;;;;;;;;15.30;99.90;;;;;;5036507;28;19914;-74
2021/09/30 12:09:07;;;;;;;;;;;15.40;99.90;;;;;;5032618;28;19921;-74
2021/09/30 12:11:36;;;;;;;;;;;15.40;99.90;;;;;;5030555;28;20371;-73
2021/09/30 12:14:03;;;;;;;;;;;15.40;99.90;;;;;;5040446;28;19913;-73
2021/09/30 12:16:28;;;;;;;;;;;15.40;99.90;;;;;;5033410;28;19917;-73
2021/09/30 12:19:01;;;;;;;;;;;15.40;99.90;;;;;;5033944;28;19947;-73
2021/09/30 12:21:36;;;;;;;;;;;15.30;99.90;;;;;;5036398;28;19920;-73
2021/09/30 12:24:02;;;;;;;;;;;15.30;99.90;;;;;;5040043;28;20013;-73
2021/09/30 12:26:30;;;;;;;;;;;15.30;99.90;;;;;;5044315;28;19917;-76
2021/09/30 12:28:56;;;;;;;;;;;15.40;99.90;;;;;;5037999;28;19924;-73
2021/09/30 12:31:22;;;;;;;;;;;15.30;99.90;;;;;;5042075;28;19943;-73
2021/09/30 12:33:47;;;;;;;;;;;15.30;99.90;;;;;;5040172;28;19939;-74
2021/09/30 12:36:14;;;;;;;;;;;15.20;99.90;;;;;;5040771;28;20359;-73
2021/09/30 12:38:40;;;;;;;;;;;15.20;99.90;;;;;;5034257;28;20362;-74
2021/09/30 12:41:05;;;;;;;;;;;15.30;99.90;;;;;;5034528;28;20000;-74
2021/09/30 12:43:32;;;;;;;;;;;15.20;99.90;;;;;;5037058;28;19924;-74
2021/09/30 12:45:59;;;;;;;;;;;15.30;99.90;;;;;;5029397;28;19921;-74
2021/09/30 12:48:29;;;;;;;;;;;15.20;99.90;;;;;;5041197;28;19919;-74
2021/09/30 12:51:03;;;;;;;;;;;15.20;99.90;;;;;;5035602;28;19952;-75
2021/09/30 12:53:28;;;;;;;;;;;15.10;99.90;;;;;;5036305;28;19917;-74
2021/09/30 12:56:05;;;;;;;;;;;15.00;99.90;;;;;;5035883;28;19920;-74
2021/09/30 12:58:32;;;;;;;;;;;15.00;99.90;;;;;;5036468;28;19932;-74
2021/09/30 13:00:58;;;;;;;;;;;14.90;99.90;;;;;;5037840;28;20431;-74
2021/09/30 13:03:24;;;;;;;;;;;14.90;99.90;;;;;;5027665;28;19917;-76
2021/09/30 13:05:50;;;;;;;;;;;14.80;99.90;;;;;;5042920;28;20418;-77
2021/09/30 13:08:35;;;;;;;;;;;14.80;99.90;;;;;;5031144;28;20003;-73
2021/09/30 13:11:20;;;;;;;;;;;14.70;99.90;;;;;;5044894;28;20346;-74
2021/09/30 13:13:46;;;;;;;;;;;14.60;99.90;;;;;;5058829;28;19916;-74
2021/09/30 13:16:24;;;;;;;;;;;14.60;99.90;;;;;;5057976;28;19935;-73
2021/09/30 13:18:50;;;;;;;;;;;14.70;99.90;;;;;;5048332;28;19913;-73
2021/09/30 13:21:15;;;;;;;;;;;14.70;99.90;;;;;;5048692;28;19921;-73
2021/09/30 13:23:41;;;;;;;;;;;14.80;99.90;;;;;;5051164;28;19973;-74
2021/09/30 13:26:06;;;;;;;;;;;14.80;99.90;;;;;;5049117;28;19913;-74
2021/09/30 13:28:32;;;;;;;;;;;14.90;99.90;;;;;;5055068;28;19913;-75
2021/09/30 13:30:57;;;;;;;;;;;14.80;99.90;;;;;;5063454;28;19913;-73
2021/09/30 13:33:23;;;;;;;;;;;14.80;99.90;;;;;;5062133;28;19919;-74
2021/09/30 13:35:48;;;;;;;;;;;14.80;99.90;;;;;;5061694;28;19923;-73
2021/09/30 13:38:14;;;;;;;;;;;14.80;99.90;;;;;;5066214;28;19939;-72
2021/09/30 13:40:39;;;;;;;;;;;14.90;99.90;;;;;;5056707;28;19904;-72
2021/09/30 13:43:05;;;;;;;;;;;14.90;99.90;;;;;;5053480;28;20354;-74
2021/09/30 13:45:32;;;;;;;;;;;14.90;99.90;;;;;;5050213;28;19939;-72
2021/09/30 13:47:57;;;;;;;;;;;15.00;99.90;;;;;;5039275;28;20387;-73
2021/09/30 13:50:23;;;;;;;;;;;15.10;99.90;;;;;;5047583;28;19913;-73
2021/09/30 13:52:50;;;;;;;;;;;15.20;99.90;;;;;;5058536;28;19916;-73
2021/09/30 13:55:16;;;;;;;;;;;15.20;99.90;;;;;;5042155;28;19959;-74
2021/09/30 13:57:42;;;;;;;;;;;15.30;99.90;;;;;;5046893;28;20384;-75
2021/09/30 14:00:09;;;;;;;;;;;15.30;99.90;;;;;;5032768;28;20724;-73
2021/09/30 14:02:35;;;;;;;;;;;15.30;99.90;;;;;;5046486;28;20254;-73
2021/09/30 14:05:01;;;;;;;;;;;15.30;99.90;;;;;;5046026;28;19921;-73
2021/09/30 14:07:27;;;;;;;;;;;15.30;99.90;;;;;;5040815;28;19920;-73
2021/09/30 14:09:53;;;;;;;;;;;15.30;99.90;;;;;;5032338;28;20365;-73
2021/09/30 14:12:19;;;;;;;;;;;15.30;99.90;;;;;;5036481;28;20336;-73
2021/09/30 14:14:44;;;;;;;;;;;15.20;99.90;;;;;;5037776;28;19917;-73
2021/09/30 14:17:10;;;;;;;;;;;15.20;99.90;;;;;;5050612;28;19939;-73
2021/09/30 14:19:35;;;;;;;;;;;15.20;99.90;;;;;;5042035;28;19913;-74
2021/09/30 14:22:01;;;;;;;;;;;15.20;99.90;;;;;;5035967;28;20289;-74
2021/09/30 14:24:30;;;;;;;;;;;15.20;99.90;;;;;;5032706;28;20278;-74
2021/09/30 14:26:56;;;;;;;;;;;15.30;99.90;;;;;;5035458;28;19913;-74
2021/09/30 14:29:21;;;;;;;;;;;15.20;99.90;;;;;;5034188;28;20004;-75
2021/09/30 14:31:47;;;;;;;;;;;15.20;99.90;;;;;;5036010;28;19913;-73
2021/09/30 14:34:13;;;;;;;;;;;15.10;99.90;;;;;;5039492;28;19952;-73
2021/09/30 14:36:38;;;;;;;;;;;15.10;99.90;;;;;;5053657;28;19932;-75
2021/09/30 14:41:48;;;;;;;;;;;15.00;99.90;;;;;;5043226;28;20331;-73
2021/09/30 14:44:13;;;;;;;;;;;15.00;99.90;;;;;;5049838;28;19916;-74
2021/09/30 14:46:39;;;;;;;;;;;14.90;99.90;;;;;;5036680;28;19913;-74
2021/09/30 14:49:05;;;;;;;;;;;15.00;99.90;;;;;;5032841;28;19917;-72
2021/09/30 14:51:30;;;;;;;;;;;15.00;99.90;;;;;;5043246;28;20426;-73
2021/09/30 14:53:56;;;;;;;;;;;15.00;99.90;;;;;;5032941;28;19921;-74
2021/09/30 14:56:21;;;;;;;;;;;15.00;99.90;;;;;;5037275;28;19917;-74
2021/09/30 14:58:48;;;;;;;;;;;15.10;99.90;;;;;;5032141;28;19913;-75
2021/09/30 15:01:14;;;;;;;;;;;15.10;99.90;;;;;;5027106;28;20365;-73
2021/09/30 15:03:39;;;;;;;;;;;15.00;99.90;;;;;;5029953;28;19917;-74
2021/09/30 15:06:10;;;;;;;;;;;15.00;99.90;;;;;;5028934;28;20043;-76
2021/09/30 15:08:35;;;;;;;;;;;15.10;99.90;;;;;;5026470;28;19913;-73
2021/09/30 15:11:01;;;;;;;;;;;15.10;99.90;;;;;;5033638;28;19925;-73
2021/09/30 15:13:26;;;;;;;;;;;15.00;99.90;;;;;;5033342;28;20381;-73
2021/09/30 15:15:51;;;;;;;;;;;15.00;99.90;;;;;;5039130;28;19925;-76
2021/09/30 15:23:46;;;;;;;;;;;15.10;99.90;;;;;;5027749;28;19948;-75
2021/09/30 15:26:13;;;;;;;;;;;15.10;99.90;;;;;;5028361;28;20992;-74
2021/09/30 15:28:39;;;;;;;;;;;15.10;99.90;;;;;;5029926;28;19917;-74
2021/09/30 15:31:04;;;;;;;;;;;15.00;99.90;;;;;;5030426;28;19920;-73
2021/09/30 15:33:30;;;;;;;;;;;15.00;99.90;;;;;;5030314;28;20007;-74
2021/09/30 15:35:56;;;;;;;;;;;15.00;99.90;;;;;;5041416;28;19913;-73
2021/09/30 15:38:26;;;;;;;;;;;15.00;99.90;;;;;;5027640;28;19920;-71
2021/09/30 15:40:52;;;;;;;;;;;15.00;99.90;;;;;;5044381;28;19920;-70
2021/09/30 15:43:22;;;;;;;;;;;14.90;99.90;;;;;;5047679;28;19920;-71
2021/09/30 15:45:48;;;;;;;;;;;14.90;99.90;;;;;;5034108;28;19921;-73
2021/09/30 15:48:13;;;;;;;;;;;14.80;99.90;;;;;;5044953;28;20008;-70
2021/09/30 15:50:38;;;;;;;;;;;14.80;99.90;;;;;;5037862;28;19913;-70
2021/09/30 15:53:04;;;;;;;;;;;14.80;99.90;;;;;;5037938;28;19921;-71
2021/09/30 15:55:30;;;;;;;;;;;14.80;99.90;;;;;;5029909;28;19913;-70
2021/09/30 15:57:55;;;;;;;;;;;14.90;99.90;;;;;;5054735;28;19951;-70
2021/09/30 16:00:21;;;;;;;;;;;14.90;99.90;;;;;;5034128;28;19975;-70
2021/09/30 16:02:46;;;;;;;;;;;14.90;99.90;;;;;;5037361;28;19917;-70
2021/09/30 16:05:12;;;;;;;;;;;14.90;99.90;;;;;;5046437;28;19925;-71
2021/09/30 16:07:37;;;;;;;;;;;14.90;99.90;;;;;;5028555;28;20460;-72
2021/09/30 16:10:03;;;;;;;;;;;14.90;99.90;;;;;;5036500;28;19952;-71
2021/09/30 16:12:29;;;;;;;;;;;14.90;99.90;;;;;;5029036;28;19959;-71
2021/09/30 16:14:54;;;;;;;;;;;15.00;99.90;;;;;;5028219;28;20514;-71
2021/09/30 16:17:20;;;;;;;;;;;14.90;99.90;;;;;;5038855;28;19916;-71
2021/09/30 16:19:45;;;;;;;;;;;14.90;99.90;;;;;;5049069;28;20332;-71
2021/09/30 16:22:12;;;;;;;;;;;14.90;99.90;;;;;;5041357;28;20563;-70
2021/09/30 16:24:37;;;;;;;;;;;14.90;99.90;;;;;;5046900;28;20027;-72
2021/09/30 16:27:03;;;;;;;;;;;14.90;99.90;;;;;;5038791;28;19996;-72
2021/09/30 16:29:28;;;;;;;;;;;14.80;99.90;;;;;;5034270;28;19951;-74
2021/09/30 16:31:54;;;;;;;;;;;14.80;99.90;;;;;;5030348;28;19917;-72
2021/09/30 16:34:19;;;;;;;;;;;14.90;99.90;;;;;;5044497;28;19913;-71
2021/09/30 16:36:45;;;;;;;;;;;14.90;99.90;;;;;;5034239;28;19913;-73
2021/09/30 16:39:10;;;;;;;;;;;14.90;99.90;;;;;;5039963;28;19983;-71
2021/09/30 16:41:36;;;;;;;;;;;14.90;99.90;;;;;;5033373;28;19913;-74
2021/09/30 16:44:01;;;;;;;;;;;14.90;99.90;;;;;;5033339;28;19936;-75
2021/09/30 16:46:27;;;;;;;;;;;14.80;99.90;;;;;;5031944;28;19967;-71
2021/09/30 16:48:52;;;;;;;;;;;14.80;99.90;;;;;;5043940;28;19921;-69
2021/09/30 16:51:18;;;;;;;;;;;14.90;99.90;;;;;;5053883;28;19917;-70
2021/09/30 16:53:44;;;;;;;;;;;14.90;99.90;;;;;;5044504;28;19935;-72
2021/09/30 16:56:09;;;;;;;;;;;14.90;99.90;;;;;;5042490;28;19948;-69
2021/09/30 16:58:36;;;;;;;;;;;14.80;99.90;;;;;;5047171;28;20729;-71
2021/09/30 17:01:01;;;;;;;;;;;14.80;99.90;;;;;;5053321;28;19919;-71
2021/09/30 17:03:27;;;;;;;;;;;14.80;99.90;;;;;;5068197;28;19917;-74
2021/09/30 17:05:52;;;;;;;;;;;14.80;99.90;;;;;;5049454;28;19913;-74
2021/09/30 17:08:19;;;;;;;;;;;14.80;99.90;;;;;;5037401;28;20344;-73
2021/09/30 17:10:45;;;;;;;;;;;14.80;99.90;;;;;;5042979;28;19938;-74
2021/09/30 17:13:10;;;;;;;;;;;14.80;99.90;;;;;;5048205;28;20490;-74
2021/09/30 17:15:37;;;;;;;;;;;14.70;99.90;;;;;;5049121;28;19917;-72
2021/09/30 17:18:03;;;;;;;;;;;14.70;99.90;;;;;;5049699;28;20140;-72